createdAt,value
2023-05-22T00:00:08.086Z,97773.44
2023-05-22T00:02:57.622Z,97769.27
2023-05-22T00:05:27.433Z,97769.84
2023-05-22T00:07:54.638Z,97771.59
2023-05-22T00:10:22.046Z,97767.65
2023-05-22T00:12:49.229Z,97768.27
2023-05-22T00:15:19.408Z,97766.54
2023-05-22T00:17:47.229Z,97769.19
2023-05-22T00:20:14.966Z,97769.11
2023-05-22T00:22:42.712Z,97772.12
2023-05-22T00:25:10.741Z,97771.96
2023-05-22T00:27:37.803Z,97771.27
2023-05-22T00:30:07.277Z,97769.42
2023-05-22T00:32:35.402Z,97769.43
2023-05-22T00:35:03.073Z,97766.19
2023-05-22T00:37:30.267Z,97766.34
2023-05-22T00:39:57.573Z,97762.75
2023-05-22T00:42:25.625Z,97762.38
2023-05-22T00:44:52.876Z,97763.14
2023-05-22T00:47:20.742Z,97763.62
2023-05-22T00:49:50.428Z,97766.08
2023-05-22T00:52:18.740Z,97763.05
2023-05-22T00:54:46.635Z,97760.67
2023-05-22T00:57:13.952Z,97756.40
2023-05-22T00:59:41.153Z,97756.14
2023-05-22T01:02:08.690Z,97759.54
2023-05-22T01:04:36.822Z,97754.89
2023-05-22T01:07:05.679Z,97748.90
2023-05-22T01:09:32.910Z,97747.23
2023-05-22T01:12:23.549Z,97747.06
2023-05-22T01:15:18.663Z,97749.46
2023-05-22T01:17:59.255Z,97750.20
2023-05-22T01:20:42.899Z,97758.14
2023-05-22T01:23:09.971Z,97756.48
2023-05-22T01:25:59.224Z,97752.12
2023-05-22T01:28:52.710Z,97751.34
2023-05-22T01:31:27.099Z,97751.27
2023-05-22T01:34:00.816Z,97755.80
2023-05-22T01:36:32.033Z,97751.12
2023-05-22T01:39:01.006Z,97751.44
2023-05-22T01:41:29.362Z,97747.56
2023-05-22T01:43:56.967Z,97745.58
2023-05-22T01:46:28.685Z,97744.36
2023-05-22T01:48:56.595Z,97738.75
2023-05-22T01:51:48.406Z,97739.29
2023-05-22T01:54:35.964Z,97738.64
2023-05-22T01:57:09.787Z,97743.30
2023-05-22T01:59:45.096Z,97747.15
2023-05-22T02:02:16.175Z,97744.81
2023-05-22T02:04:49.122Z,97743.48
2023-05-22T02:07:19.325Z,97745.83
2023-05-22T02:09:48.437Z,97741.99
2023-05-22T02:12:15.888Z,97744.27
2023-05-22T02:14:43.444Z,97744.60
2023-05-22T02:17:13.818Z,97743.77
2023-05-22T02:19:40.974Z,97742.77
2023-05-22T02:22:09.587Z,97745.71
2023-05-22T02:24:39.260Z,97744.98
2023-05-22T02:27:06.821Z,97741.16
2023-05-22T02:29:36.334Z,97744.27
2023-05-22T02:32:03.984Z,97746.88
2023-05-22T02:34:34.613Z,97747.85
2023-05-22T02:37:05.070Z,97749.08
2023-05-22T02:39:32.710Z,97751.38
2023-05-22T02:42:00.381Z,97748.45
2023-05-22T02:44:29.971Z,97746.18
2023-05-22T02:46:57.355Z,97744.95
2023-05-22T02:49:24.684Z,97746.98
2023-05-22T02:51:51.977Z,97749.30
2023-05-22T02:54:19.262Z,97750.38
2023-05-22T02:56:46.517Z,97750.30
2023-05-22T02:59:13.734Z,97750.31
2023-05-22T03:01:40.869Z,97749.64
2023-05-22T03:04:08.054Z,97746.89
2023-05-22T03:06:36.670Z,97747.33
2023-05-22T03:09:04.320Z,97745.92
2023-05-22T03:11:31.939Z,97737.29
2023-05-22T03:13:59.136Z,97734.61
2023-05-22T03:16:26.474Z,97732.70
2023-05-22T03:19:13.584Z,97734.83
2023-05-22T03:21:43.494Z,97736.30
2023-05-22T03:24:13.324Z,97735.74
2023-05-22T03:26:41.443Z,97737.11
2023-05-22T03:29:10.864Z,97738.60
2023-05-22T03:31:40.028Z,97741.58
2023-05-22T03:34:09.418Z,97742.52
2023-05-22T03:36:37.573Z,97744.09
2023-05-22T03:39:05.956Z,97749.20
2023-05-22T03:41:36.679Z,97755.10
2023-05-22T03:44:04.422Z,97753.72
2023-05-22T03:46:33.186Z,97751.78
2023-05-22T03:49:00.363Z,97749.55
2023-05-22T03:51:27.872Z,97751.25
2023-05-22T03:53:55.088Z,97750.98
2023-05-22T03:56:25.195Z,97750.80
2023-05-22T03:58:52.402Z,97751.34
2023-05-22T04:01:22.132Z,97751.68
2023-05-22T04:03:49.348Z,97750.97
2023-05-22T04:06:17.231Z,97755.96
2023-05-22T04:08:44.412Z,97752.16
2023-05-22T04:11:15.240Z,97748.73
2023-05-22T04:13:42.842Z,97748.39
2023-05-22T04:16:10.050Z,97742.55
2023-05-22T04:18:38.066Z,97739.29
2023-05-22T04:21:09.089Z,97740.05
2023-05-22T04:23:36.747Z,97743.05
2023-05-22T04:26:08.204Z,97744.77
2023-05-22T04:28:35.633Z,97743.46
2023-05-22T04:31:05.938Z,97746.80
2023-05-22T04:33:36.363Z,97747.11
2023-05-22T04:36:04.570Z,97751.54
2023-05-22T04:38:36.083Z,97745.75
2023-05-22T04:41:03.241Z,97742.45
2023-05-22T04:43:31.954Z,97736.83
2023-05-22T04:45:58.998Z,97736.35
2023-05-22T04:48:28.582Z,97734.59
2023-05-22T04:50:57.114Z,97735.39
2023-05-22T04:53:27.095Z,97734.27
2023-05-22T04:55:54.347Z,97732.20
2023-05-22T04:58:23.068Z,97727.54
2023-05-22T05:00:53.179Z,97729.70
2023-05-22T05:03:28.165Z,97729.80
2023-05-22T05:05:56.321Z,97728.19
2023-05-22T05:08:23.442Z,97729.40
2023-05-22T05:10:52.896Z,97729.96
2023-05-22T05:13:20.212Z,97729.95
2023-05-22T05:15:48.522Z,97729.75
2023-05-22T05:18:16.771Z,97728.27
2023-05-22T05:20:44.109Z,97728.55
2023-05-22T05:23:11.520Z,97728.75
2023-05-22T05:25:38.935Z,97729.56
2023-05-22T05:28:10.885Z,97725.87
2023-05-22T05:30:40.220Z,97724.11
2023-05-22T05:33:27.293Z,97728.63
2023-05-22T05:36:02.076Z,97732.08
2023-05-22T05:38:29.810Z,97731.94
2023-05-22T05:40:57.640Z,97726.61
2023-05-22T05:43:25.784Z,97724.05
2023-05-22T05:45:57.207Z,97723.86
2023-05-22T05:48:27.431Z,97718.64
2023-05-22T05:50:54.696Z,97718.04
2023-05-22T05:53:22.319Z,97718.36
2023-05-22T05:55:59.846Z,97718.34
2023-05-22T05:58:32.055Z,97715.46
2023-05-22T06:01:19.654Z,97714.02
2023-05-22T06:03:47.305Z,97713.94
2023-05-22T06:06:21.268Z,97712.33
2023-05-22T06:09:07.202Z,97710.89
2023-05-22T06:11:37.929Z,97711.17
2023-05-22T06:14:07.230Z,97706.15
2023-05-22T06:16:35.131Z,97706.99
2023-05-22T06:19:04.169Z,97709.98
2023-05-22T06:21:31.953Z,97707.43
2023-05-22T06:24:00.199Z,97708.79
2023-05-22T06:26:28.248Z,97709.09
2023-05-22T06:28:55.492Z,97706.70
2023-05-22T06:31:24.035Z,97704.77
2023-05-22T06:33:51.865Z,97705.66
2023-05-22T06:36:20.041Z,97701.41
2023-05-22T06:38:49.145Z,97700.87
2023-05-22T06:41:38.583Z,97700.91
2023-05-22T06:44:07.271Z,97698.63
2023-05-22T06:46:38.899Z,97697.47
2023-05-22T06:49:07.715Z,97698.67
2023-05-22T06:51:48.641Z,97695.63
2023-05-22T06:54:17.437Z,97693.56
2023-05-22T06:56:48.679Z,97689.75
2023-05-22T06:59:20.318Z,97692.00
2023-05-22T07:02:10.480Z,97689.56
2023-05-22T07:04:49.236Z,97686.99
2023-05-22T07:07:23.650Z,97682.05
2023-05-22T07:09:57.354Z,97682.69
2023-05-22T07:12:27.774Z,97683.46
2023-05-22T07:15:01.213Z,97684.14
2023-05-22T07:17:32.495Z,97687.02
2023-05-22T07:20:00.180Z,97680.70
2023-05-22T07:22:28.132Z,97678.27
2023-05-22T07:24:59.233Z,97672.71
2023-05-22T07:27:33.216Z,97674.70
2023-05-22T07:30:01.133Z,97669.66
2023-05-22T07:32:36.953Z,97666.41
2023-05-22T07:35:05.421Z,97664.30
2023-05-22T07:37:35.587Z,97666.34
2023-05-22T07:40:06.329Z,97663.89
2023-05-22T07:42:37.976Z,97665.91
2023-05-22T07:45:06.508Z,97665.09
2023-05-22T07:47:34.613Z,97659.55
2023-05-22T07:50:04.796Z,97661.80
2023-05-22T07:52:32.543Z,97665.53
2023-05-22T07:55:00.574Z,97659.89
2023-05-22T07:57:29.299Z,97660.50
2023-05-22T07:59:58.927Z,97661.38
2023-05-22T08:02:26.730Z,97663.27
2023-05-22T08:04:54.039Z,97662.38
2023-05-22T08:07:21.316Z,97658.05
2023-05-22T08:09:48.861Z,97656.53
2023-05-22T08:12:16.150Z,97657.75
2023-05-22T08:14:43.436Z,97659.74
2023-05-22T08:17:10.888Z,97657.11
2023-05-22T08:19:38.318Z,97655.67
2023-05-22T08:22:05.956Z,97654.02
2023-05-22T08:24:33.153Z,97652.48
2023-05-22T08:27:00.428Z,97648.83
2023-05-22T08:29:28.249Z,97645.88
2023-05-22T08:31:56.512Z,97644.35
2023-05-22T08:34:24.990Z,97641.30
2023-05-22T08:36:52.231Z,97640.36
2023-05-22T08:39:22.186Z,97638.73
2023-05-22T08:41:49.506Z,97640.04
2023-05-22T08:44:19.462Z,97637.80
2023-05-22T08:46:46.711Z,97635.18
2023-05-22T08:49:15.809Z,97634.88
